| time (UTC) | temp F | wind direction | speed knots | gust knots | rain 1hr in | rain 24hr in | rain mn in | humidity % | barometer mb |
| 20260502212703 | 65 | 227 | 5.2 | 13.0 | 0.00 | 0.00 | 0.00 | 26 | 1011.1 |
| 20260502212014 | 66 | 224 | 3.5 | 11.3 | 0.00 | 0.00 | 0.00 | 26 | 1011.1 |
| 20260502211116 | 65 | 252 | 3.5 | 7.8 | 0.00 | 0.00 | 0.00 | 27 | 1011.3 |
| 20260502210214 | 64 | 247 | 4.3 | 13.0 | 0.00 | 0.00 | 0.00 | 27 | 1011.5 |
| 20260502205403 | 64 | 233 | 4.3 | 8.7 | 0.00 | 0.00 | 0.00 | 26 | 1011.7 |
| 20260502204503 | 64 | 263 | 3.5 | 8.7 | 0.00 | 0.00 | 0.00 | 27 | 1011.8 |
| 20260502203603 | 64 | 248 | 4.3 | 8.7 | 0.00 | 0.00 | 0.00 | 28 | 1012.0 |
| 20260502202703 | 64 | 267 | 3.5 | 9.6 | 0.00 | 0.00 | 0.00 | 26 | 1012.1 |
| 20260502201803 | 64 | 251 | 4.3 | 12.2 | 0.00 | 0.00 | 0.00 | 27 | 1012.3 |
| 20260502200903 | 64 | 261 | 4.3 | 7.8 | 0.00 | 0.00 | 0.00 | 27 | 1012.5 |
| 20260502200214 | 63 | 251 | 5.2 | 11.3 | 0.00 | 0.00 | 0.00 | 27 | 1012.6 |
| 20260502195404 | 62 | 232 | 5.2 | 13.9 | 0.00 | 0.00 | 0.00 | 27 | 1012.9 |
| 20260502194713 | 62 | 245 | 5.2 | 13.0 | 0.00 | 0.00 | 0.00 | 28 | 1013.1 |
| 20260502193603 | 61 | 257 | 3.5 | 6.1 | 0.00 | 0.00 | 0.00 | 28 | 1013.2 |
| 20260502192703 | 61 | 245 | 4.3 | 10.4 | 0.00 | 0.00 | 0.00 | 28 | 1013.4 |
| 20260502192015 | 62 | 244 | 4.3 | 14.8 | 0.00 | 0.00 | 0.00 | 27 | 1013.6 |
| 20260502190903 | 61 | 247 | 5.2 | 11.3 | 0.00 | 0.00 | 0.00 | 28 | 1013.7 |
| 20260502190004 | 61 | 272 | 3.5 | 10.4 | 0.00 | 0.00 | 0.00 | 28 | 1013.9 |
| 20260502185403 | 61 | 270 | 3.5 | 6.1 | 0.00 | 0.00 | 0.00 | 28 | 1014.1 |
| 20260502184503 | 60 | 232 | 3.5 | 7.0 | 0.00 | 0.00 | 0.00 | 27 | 1014.3 |
| 20260502183604 | 60 | 294 | 3.5 | 4.3 | 0.00 | 0.00 | 0.00 | 28 | 1014.4 |
| 20260502182914 | 60 | 251 | 4.3 | 8.7 | 0.00 | 0.00 | 0.00 | 29 | 1014.6 |
| 20260502181803 | 60 | 225 | 3.5 | 6.1 | 0.00 | 0.00 | 0.00 | 28 | 1014.8 |
| 20260502180903 | 58 | 246 | 3.5 | 6.1 | 0.00 | 0.00 | 0.00 | 31 | 1014.8 |
| 20260502163603 | 55 | 236 | 5.2 | 10.4 | 0.00 | 0.00 | 0.00 | 31 | 1016.4 |
| 20260502162703 | 55 | 251 | 3.5 | 9.6 | 0.00 | 0.00 | 0.00 | 37 | 1016.5 |
| 20260502162017 | 55 | 264 | 3.5 | 7.8 | 0.00 | 0.00 | 0.00 | 35 | 1016.5 |
| 20260502161115 | 54 | 292 | 4.3 | 5.2 | 0.00 | 0.00 | 0.00 | 34 | 1016.6 |
| 20260502160217 | 54 | 260 | 4.3 | 9.6 | 0.00 | 0.00 | 0.00 | 34 | 1016.7 |
| 20260502151803 | 54 | 301 | 2.6 | 6.1 | 0.00 | 0.00 | 0.00 | 38 | 1017.0 |
| 20260502150903 | 53 | 275 | 2.6 | 7.8 | 0.00 | 0.00 | 0.00 | 43 | 1017.0 |
| 20260502123815 | 40 | 276 | 1.7 | 4.3 | 0.00 | 0.00 | 0.00 | 62 | 1017.7 |
| 20260502122703 | 38 | 278 | 1.7 | 5.2 | 0.00 | 0.00 | 0.00 | 64 | 1017.7 |
| 20260502122015 | 38 | 288 | 0.9 | 2.6 | 0.00 | 0.00 | 0.00 | 66 | 1017.6 |
| 20260502120903 | 36 | 308 | 0.0 | 1.7 | 0.00 | 0.00 | 0.00 | 67 | 1017.6 |
| 20260502115403 | 36 | 304 | 0.9 | 2.6 | 0.00 | 0.00 | 0.00 | 68 | 1017.5 |
| 20260502114503 | 36 | 309 | 0.9 | 2.6 | 0.00 | 0.00 | 0.00 | 68 | 1017.5 |
| 20260502113603 | 36 | 315 | 0.0 | 1.7 | 0.00 | 0.00 | 0.00 | 67 | 1017.3 |
| 20260502112703 | 36 | 319 | 0.0 | 0.9 | 0.00 | 0.00 | 0.00 | 67 | 1017.3 |
| 20260502111803 | 36 | 323 | 0.0 | 0.9 | 0.00 | 0.00 | 0.00 | 67 | 1017.2 |
| 20260502110903 | 36 | 318 | 0.9 | 1.7 | 0.00 | 0.00 | 0.00 | 67 | 1017.2 |
| 20260502110004 | 36 | 311 | 0.0 | 1.7 | 0.00 | 0.00 | 0.00 | 67 | 1017.3 |
| 20260502105403 | 36 | 312 | 0.0 | 1.7 | 0.00 | 0.00 | 0.00 | 67 | 1017.3 |
| 20260502104503 | 36 | 0 | 0.0 | 0.0 | 0.00 | 0.00 | 0.00 | 66 | 1017.3 |
| 20260502103603 | 36 | 298 | 0.0 | 0.9 | 0.00 | 0.00 | 0.00 | 66 | 1017.3 |
| 20260502102703 | 36 | 295 | 0.0 | 1.7 | 0.00 | 0.00 | 0.00 | 66 | 1017.3 |
| 20260502100903 | 36 | 274 | 0.9 | 1.7 | 0.00 | 0.00 | 0.00 | 66 | 1017.3 |
| 20260502100216 | 36 | 266 | 0.0 | 1.7 | 0.00 | 0.00 | 0.00 | 66 | 1017.2 |
| 20260502090903 | 35 | 290 | 0.0 | 0.9 | 0.00 | 0.00 | 0.00 | 68 | 1017.2 |
| 20260502070903 | 37 | 0 | 0.0 | 0.0 | 0.00 | 0.00 | 0.00 | 68 | 1017.4 |
| 20260502070004 | 37 | 0 | 0.0 | 0.0 | 0.00 | 0.00 | 0.00 | 69 | 1017.4 |
| 20260502065403 | 37 | 0 | 0.0 | 0.0 | 0.00 | 0.00 | 0.00 | 70 | 1017.5 |
| 20260502064504 | 37 | 0 | 0.0 | 0.0 | 0.00 | 0.00 | 0.00 | 70 | 1017.5 |
| 20260502063603 | 37 | 0 | 0.0 | 0.0 | 0.00 | 0.00 | 0.00 | 71 | 1017.6 |
| 20260502062703 | 36 | 0 | 0.0 | 0.0 | 0.00 | 0.00 | 0.00 | 73 | 1017.6 |
| 20260502060903 | 36 | 0 | 0.0 | 0.0 | 0.00 | 0.00 | 0.00 | 73 | 1017.6 |
| 20260502060004 | 36 | 0 | 0.0 | 0.0 | 0.00 | 0.00 | 0.00 | 72 | 1017.6 |
| 20260502055403 | 36 | 0 | 0.0 | 0.0 | 0.00 | 0.00 | 0.00 | 72 | 1017.6 |
| 20260502054503 | 36 | 0 | 0.0 | 0.0 | 0.00 | 0.00 | 0.00 | 73 | 1017.6 |
| 20260502053603 | 36 | 0 | 0.0 | 0.0 | 0.00 | 0.00 | 0.00 | 73 | 1017.6 |
| 20260502052703 | 35 | 0 | 0.0 | 0.0 | 0.00 | 0.00 | 0.00 | 74 | 1017.6 |
| 20260502052014 | 35 | 0 | 0.0 | 0.0 | 0.00 | 0.00 | 0.00 | 74 | 1017.6 |
| 20260502050903 | 35 | 0 | 0.0 | 0.0 | 0.00 | 0.00 | 0.00 | 74 | 1017.6 |
| 20260502050005 | 35 | 0 | 0.0 | 0.0 | 0.00 | 0.00 | 0.00 | 75 | 1017.6 |
| 20260502045403 | 35 | 0 | 0.0 | 0.0 | 0.00 | 0.00 | 0.00 | 74 | 1017.6 |
| 20260502044504 | 35 | 0 | 0.0 | 0.0 | 0.00 | 0.00 | 0.00 | 75 | 1017.5 |
| 20260502043603 | 35 | 0 | 0.0 | 0.0 | 0.00 | 0.00 | 0.00 | 76 | 1017.5 |
| 20260502042703 | 35 | 0 | 0.0 | 0.0 | 0.00 | 0.00 | 0.00 | 76 | 1017.5 |
| 20260502041803 | 36 | 0 | 0.0 | 0.0 | 0.00 | 0.00 | 0.00 | 74 | 1017.5 |
| 20260502040903 | 36 | 0 | 0.0 | 0.0 | 0.00 | 0.00 | 0.00 | 74 | 1017.5 |
| 20260502040214 | 36 | 0 | 0.0 | 0.0 | 0.00 | 0.00 | 0.00 | 75 | 1017.6 |
| 20260502035403 | 36 | 0 | 0.0 | 0.0 | 0.00 | 0.00 | 0.00 | 73 | 1017.6 |
| 20260502034503 | 36 | 0 | 0.0 | 0.0 | 0.00 | 0.00 | 0.00 | 71 | 1017.6 |
| 20260502033603 | 37 | 0 | 0.0 | 0.0 | 0.00 | 0.00 | 0.00 | 70 | 1017.6 |
| 20260502032704 | 37 | 349 | 0.0 | 0.0 | 0.00 | 0.00 | 0.00 | 70 | 1017.6 |
| 20260502031803 | 38 | 349 | 0.9 | 0.9 | 0.00 | 0.00 | 0.00 | 68 | 1017.6 |
| 20260502030903 | 38 | 0 | 0.0 | 0.0 | 0.00 | 0.00 | 0.00 | 63 | 1017.6 |
| 20260502030003 | 39 | 0 | 0.0 | 0.0 | 0.00 | 0.00 | 0.00 | 63 | 1017.6 |
| 20260502025403 | 39 | 0 | 0.0 | 0.0 | 0.00 | 0.00 | 0.00 | 60 | 1017.6 |
| 20260502024503 | 40 | 0 | 0.0 | 0.0 | 0.00 | 0.00 | 0.00 | 59 | 1017.6 |
| 20260502023603 | 41 | 0 | 0.0 | 0.0 | 0.00 | 0.00 | 0.00 | 58 | 1017.6 |
| 20260502022703 | 42 | 0 | 0.0 | 0.0 | 0.00 | 0.00 | 0.00 | 54 | 1017.4 |
| 20260502022016 | 43 | 0 | 0.0 | 0.0 | 0.00 | 0.00 | 0.00 | 52 | 1017.4 |
| 20260502020904 | 44 | 0 | 0.0 | 0.0 | 0.00 | 0.00 | 0.00 | 51 | 1017.3 |
| 20260502020004 | 44 | 0 | 0.0 | 0.0 | 0.00 | 0.00 | 0.00 | 47 | 1017.3 |
| 20260502015617 | 44 | 0 | 0.0 | 0.0 | 0.00 | 0.00 | 0.00 | 44 | 1017.2 |
| 20260502014503 | 45 | 0 | 0.0 | 0.0 | 0.00 | 0.00 | 0.00 | 46 | 1017.0 |
| 20260502013603 | 46 | 349 | 0.0 | 1.7 | 0.00 | 0.00 | 0.00 | 45 | 1017.0 |
| 20260502012703 | 47 | 0 | 0.0 | 0.0 | 0.00 | 0.00 | 0.00 | 43 | 1017.0 |
| 20260502011803 | 48 | 0 | 0.0 | 0.0 | 0.00 | 0.00 | 0.00 | 41 | 1016.9 |
| 20260502010903 | 49 | 6 | 0.0 | 1.7 | 0.00 | 0.00 | 0.00 | 39 | 1016.9 |
| 20260502010004 | 49 | 337 | 0.0 | 0.0 | 0.00 | 0.00 | 0.00 | 35 | 1016.9 |
| 20260502005613 | 50 | 349 | 0.0 | 1.7 | 0.00 | 0.00 | 0.00 | 34 | 1016.9 |
| 20260502004504 | 50 | 291 | 0.9 | 0.9 | 0.00 | 0.00 | 0.00 | 36 | 1016.8 |
| 20260502003817 | 50 | 286 | 0.0 | 1.7 | 0.00 | 0.00 | 0.00 | 35 | 1016.8 |
| 20260502002703 | 50 | 315 | 0.0 | 1.7 | 0.00 | 0.00 | 0.00 | 35 | 1016.8 |
| 20260502002017 | 50 | 328 | 0.0 | 1.7 | 0.00 | 0.00 | 0.00 | 34 | 1016.8 |
| 20260502001114 | 50 | 355 | 1.7 | 4.3 | 0.00 | 0.00 | 0.00 | 31 | 1016.8 |
| 20260502000003 | 50 | 350 | 2.6 | 4.3 | 0.00 | 0.00 | 0.00 | 31 | 1016.7 |
| 20260501235403 | 51 | 6 | 2.6 | 5.2 | 0.00 | 0.00 | 0.00 | 29 | 1016.6 |
| 20260501234503 | 51 | 33 | 2.6 | 5.2 | 0.00 | 0.00 | 0.00 | 29 | 1016.6 |
| 20260501233603 | 51 | 353 | 1.7 | 3.5 | 0.00 | 0.00 | 0.00 | 29 | 1016.6 |
| 20260501232703 | 50 | 353 | 0.9 | 3.5 | 0.00 | 0.00 | 0.00 | 34 | 1016.7 |
| 20260501231803 | 50 | 356 | 1.7 | 4.3 | 0.00 | 0.00 | 0.00 | 31 | 1016.7 |
| 20260501230903 | 50 | 359 | 2.6 | 6.1 | 0.00 | 0.00 | 0.00 | 30 | 1016.7 |
| 20260501230213 | 51 | 348 | 2.6 | 5.2 | 0.00 | 0.00 | 0.00 | 29 | 1016.7 |
| 20260501225403 | 53 | 341 | 3.5 | 7.8 | 0.00 | 0.00 | 0.00 | 28 | 1016.7 |
| 20260501224503 | 54 | 310 | 1.7 | 4.3 | 0.00 | 0.00 | 0.00 | 27 | 1016.6 |
| 20260501223603 | 53 | 301 | 2.6 | 3.5 | 0.00 | 0.00 | 0.00 | 29 | 1016.6 |
| 20260501222704 | 54 | 338 | 3.5 | 7.8 | 0.00 | 0.00 | 0.00 | 27 | 1016.7 |
| 20260501221803 | 54 | 322 | 1.7 | 6.1 | 0.00 | 0.00 | 0.00 | 28 | 1016.6 |
| 20260501220903 | 53 | 3 | 3.5 | 6.1 | 0.00 | 0.00 | 0.00 | 28 | 1016.7 |
| 20260501220003 | 53 | 9 | 3.5 | 10.4 | 0.00 | 0.00 | 0.00 | 28 | 1016.8 |
| 20260501215403 | 52 | 19 | 3.5 | 8.7 | 0.00 | 0.00 | 0.00 | 27 | 1016.7 |
| 20260501214503 | 51 | 357 | 3.5 | 7.8 | 0.00 | 0.00 | 0.00 | 30 | 1016.6 |
| 20260501213603 | 51 | 357 | 2.6 | 5.2 | 0.00 | 0.00 | 0.00 | 29 | 1016.7 |